sensor_id;sensor_type;location;lat;lon;timestamp;P1;durP1;ratioP1;P2;durP2;ratioP2
11394;SDS011;5753;54.402;10.220;2022-10-16T00:02:07;13.68;;;10.38;;
11394;SDS011;5753;54.402;10.220;2022-10-16T00:04:33;10.48;;;7.53;;
11394;SDS011;5753;54.402;10.220;2022-10-16T00:06:59;15.40;;;10.10;;
11394;SDS011;5753;54.402;10.220;2022-10-16T00:09:25;15.00;;;10.93;;
11394;SDS011;5753;54.402;10.220;2022-10-16T00:11:51;27.42;;;8.32;;
11394;SDS011;5753;54.402;10.220;2022-10-16T00:14:17;12.18;;;9.05;;
11394;SDS011;5753;54.402;10.220;2022-10-16T00:16:44;11.77;;;8.40;;
11394;SDS011;5753;54.402;10.220;2022-10-16T00:19:10;8.80;;;7.10;;
11394;SDS011;5753;54.402;10.220;2022-10-16T00:21:37;12.90;;;9.57;;
11394;SDS011;5753;54.402;10.220;2022-10-16T00:24:05;15.85;;;9.38;;
11394;SDS011;5753;54.402;10.220;2022-10-16T00:26:34;10.05;;;8.07;;
11394;SDS011;5753;54.402;10.220;2022-10-16T00:29:01;11.13;;;8.38;;
11394;SDS011;5753;54.402;10.220;2022-10-16T00:31:28;17.25;;;9.70;;
11394;SDS011;5753;54.402;10.220;2022-10-16T00:33:54;8.68;;;7.28;;
11394;SDS011;5753;54.402;10.220;2022-10-16T00:36:21;11.07;;;7.90;;
11394;SDS011;5753;54.402;10.220;2022-10-16T00:38:52;11.27;;;8.60;;
11394;SDS011;5753;54.402;10.220;2022-10-16T00:41:21;14.60;;;9.60;;
11394;SDS011;5753;54.402;10.220;2022-10-16T00:43:55;13.93;;;7.93;;
11394;SDS011;5753;54.402;10.220;2022-10-16T00:46:25;15.98;;;7.65;;
11394;SDS011;5753;54.402;10.220;2022-10-16T00:49:06;10.63;;;6.63;;
11394;SDS011;5753;54.402;10.220;2022-10-16T00:51:37;13.75;;;6.53;;
11394;SDS011;5753;54.402;10.220;2022-10-16T00:54:10;11.45;;;7.95;;
11394;SDS011;5753;54.402;10.220;2022-10-16T00:56:55;15.25;;;7.75;;
11394;SDS011;5753;54.402;10.220;2022-10-16T00:59:26;11.88;;;7.47;;
11394;SDS011;5753;54.402;10.220;2022-10-16T01:01:55;8.40;;;5.80;;
11394;SDS011;5753;54.402;10.220;2022-10-16T01:04:22;9.05;;;6.28;;
11394;SDS011;5753;54.402;10.220;2022-10-16T01:09:57;10.65;;;5.32;;
11394;SDS011;5753;54.402;10.220;2022-10-16T01:15:31;9.65;;;5.38;;
11394;SDS011;5753;54.402;10.220;2022-10-16T01:21:03;7.65;;;6.40;;
11394;SDS011;5753;54.402;10.220;2022-10-16T01:29:30;5.53;;;4.70;;
11394;SDS011;5753;54.402;10.220;2022-10-16T01:32:09;10.02;;;5.57;;
11394;SDS011;5753;54.402;10.220;2022-10-16T01:34:59;9.57;;;6.10;;
11394;SDS011;5753;54.402;10.220;2022-10-16T01:38:10;9.43;;;6.78;;
11394;SDS011;5753;54.402;10.220;2022-10-16T01:40:27;6.55;;;4.72;;
11394;SDS011;5753;54.402;10.220;2022-10-16T01:43:02;9.27;;;6.88;;
11394;SDS011;5753;54.402;10.220;2022-10-16T01:45:31;12.18;;;5.80;;
11394;SDS011;5753;54.402;10.220;2022-10-16T01:48:00;8.65;;;5.60;;
11394;SDS011;5753;54.402;10.220;2022-10-16T01:50:30;12.52;;;6.75;;
11394;SDS011;5753;54.402;10.220;2022-10-16T01:53:00;8.13;;;6.43;;
11394;SDS011;5753;54.402;10.220;2022-10-16T01:55:29;15.50;;;7.63;;
11394;SDS011;5753;54.402;10.220;2022-10-16T01:58:02;20.25;;;6.38;;
11394;SDS011;5753;54.402;10.220;2022-10-16T02:00:32;13.13;;;8.40;;
11394;SDS011;5753;54.402;10.220;2022-10-16T02:02:58;9.80;;;5.35;;
11394;SDS011;5753;54.402;10.220;2022-10-16T02:05:30;8.18;;;6.90;;
11394;SDS011;5753;54.402;10.220;2022-10-16T02:08:05;12.90;;;6.85;;
11394;SDS011;5753;54.402;10.220;2022-10-16T02:10:31;7.10;;;6.15;;
11394;SDS011;5753;54.402;10.220;2022-10-16T02:13:03;8.30;;;5.82;;
11394;SDS011;5753;54.402;10.220;2022-10-16T02:15:32;17.17;;;7.25;;
11394;SDS011;5753;54.402;10.220;2022-10-16T02:17:58;7.60;;;6.05;;
11394;SDS011;5753;54.402;10.220;2022-10-16T02:20:25;8.75;;;5.78;;
11394;SDS011;5753;54.402;10.220;2022-10-16T02:22:57;12.73;;;6.30;;
11394;SDS011;5753;54.402;10.220;2022-10-16T02:25:30;14.50;;;5.78;;
11394;SDS011;5753;54.402;10.220;2022-10-16T02:33:07;10.93;;;8.90;;
11394;SDS011;5753;54.402;10.220;2022-10-16T02:35:38;7.28;;;6.28;;
11394;SDS011;5753;54.402;10.220;2022-10-16T02:38:05;8.82;;;5.78;;
11394;SDS011;5753;54.402;10.220;2022-10-16T02:40:33;9.43;;;5.57;;
11394;SDS011;5753;54.402;10.220;2022-10-16T02:43:00;8.20;;;6.13;;
11394;SDS011;5753;54.402;10.220;2022-10-16T02:45:28;7.63;;;6.18;;
11394;SDS011;5753;54.402;10.220;2022-10-16T02:47:54;11.57;;;6.85;;
11394;SDS011;5753;54.402;10.220;2022-10-16T02:50:20;12.77;;;5.60;;
11394;SDS011;5753;54.402;10.220;2022-10-16T02:52:47;11.25;;;6.60;;
11394;SDS011;5753;54.402;10.220;2022-10-16T02:55:13;8.27;;;6.65;;
11394;SDS011;5753;54.402;10.220;2022-10-16T02:57:40;10.63;;;5.55;;
11394;SDS011;5753;54.402;10.220;2022-10-16T03:00:06;8.00;;;5.35;;
11394;SDS011;5753;54.402;10.220;2022-10-16T03:02:37;10.05;;;6.13;;
11394;SDS011;5753;54.402;10.220;2022-10-16T03:05:04;13.73;;;7.20;;
11394;SDS011;5753;54.402;10.220;2022-10-16T03:07:30;7.95;;;5.70;;
11394;SDS011;5753;54.402;10.220;2022-10-16T03:09:56;9.93;;;6.13;;
11394;SDS011;5753;54.402;10.220;2022-10-16T03:12:25;15.15;;;6.10;;
11394;SDS011;5753;54.402;10.220;2022-10-16T03:14:52;11.77;;;5.57;;
11394;SDS011;5753;54.402;10.220;2022-10-16T03:17:18;8.80;;;6.45;;
11394;SDS011;5753;54.402;10.220;2022-10-16T03:19:44;13.20;;;7.15;;
11394;SDS011;5753;54.402;10.220;2022-10-16T03:22:10;9.07;;;5.35;;
11394;SDS011;5753;54.402;10.220;2022-10-16T03:24:36;8.65;;;5.95;;
11394;SDS011;5753;54.402;10.220;2022-10-16T03:27:02;10.52;;;5.18;;
11394;SDS011;5753;54.402;10.220;2022-10-16T03:29:28;6.95;;;4.85;;
11394;SDS011;5753;54.402;10.220;2022-10-16T03:31:55;8.18;;;6.38;;
11394;SDS011;5753;54.402;10.220;2022-10-16T03:34:21;10.10;;;6.13;;
11394;SDS011;5753;54.402;10.220;2022-10-16T03:36:48;5.50;;;4.13;;
11394;SDS011;5753;54.402;10.220;2022-10-16T03:39:14;10.05;;;4.63;;
11394;SDS011;5753;54.402;10.220;2022-10-16T03:41:40;8.05;;;4.45;;
11394;SDS011;5753;54.402;10.220;2022-10-16T03:44:06;11.00;;;5.22;;
11394;SDS011;5753;54.402;10.220;2022-10-16T03:46:32;8.15;;;4.82;;
11394;SDS011;5753;54.402;10.220;2022-10-16T03:48:59;4.63;;;3.90;;
11394;SDS011;5753;54.402;10.220;2022-10-16T03:51:25;7.43;;;5.32;;
11394;SDS011;5753;54.402;10.220;2022-10-16T03:53:51;9.38;;;6.53;;
11394;SDS011;5753;54.402;10.220;2022-10-16T03:56:18;8.98;;;4.00;;
11394;SDS011;5753;54.402;10.220;2022-10-16T03:58:44;10.75;;;5.07;;
11394;SDS011;5753;54.402;10.220;2022-10-16T04:01:10;12.40;;;4.45;;
11394;SDS011;5753;54.402;10.220;2022-10-16T04:03:36;4.15;;;2.90;;
11394;SDS011;5753;54.402;10.220;2022-10-16T04:06:02;5.97;;;4.15;;
11394;SDS011;5753;54.402;10.220;2022-10-16T04:08:28;5.20;;;2.53;;
11394;SDS011;5753;54.402;10.220;2022-10-16T04:10:55;5.68;;;2.50;;
11394;SDS011;5753;54.402;10.220;2022-10-16T04:13:21;9.52;;;4.55;;
11394;SDS011;5753;54.402;10.220;2022-10-16T04:15:47;7.57;;;2.95;;
11394;SDS011;5753;54.402;10.220;2022-10-16T04:18:13;4.60;;;2.97;;
11394;SDS011;5753;54.402;10.220;2022-10-16T04:20:40;6.53;;;3.03;;
11394;SDS011;5753;54.402;10.220;2022-10-16T04:23:06;5.00;;;3.35;;
11394;SDS011;5753;54.402;10.220;2022-10-16T04:25:32;2.47;;;1.95;;
11394;SDS011;5753;54.402;10.220;2022-10-16T04:27:58;9.70;;;3.92;;
11394;SDS011;5753;54.402;10.220;2022-10-16T04:30:24;6.45;;;3.25;;
11394;SDS011;5753;54.402;10.220;2022-10-16T04:32:51;4.85;;;3.17;;
11394;SDS011;5753;54.402;10.220;2022-10-16T04:35:18;7.57;;;3.42;;
11394;SDS011;5753;54.402;10.220;2022-10-16T04:37:45;5.50;;;3.28;;
11394;SDS011;5753;54.402;10.220;2022-10-16T04:40:12;3.15;;;2.78;;
11394;SDS011;5753;54.402;10.220;2022-10-16T04:42:38;3.15;;;2.42;;
11394;SDS011;5753;54.402;10.220;2022-10-16T04:45:06;4.13;;;2.08;;
11394;SDS011;5753;54.402;10.220;2022-10-16T04:47:33;6.85;;;2.88;;
11394;SDS011;5753;54.402;10.220;2022-10-16T04:49:59;2.95;;;2.17;;
11394;SDS011;5753;54.402;10.220;2022-10-16T04:52:27;3.22;;;1.95;;
11394;SDS011;5753;54.402;10.220;2022-10-16T04:54:53;9.75;;;2.35;;
11394;SDS011;5753;54.402;10.220;2022-10-16T04:57:21;5.00;;;2.92;;
11394;SDS011;5753;54.402;10.220;2022-10-16T04:59:47;6.38;;;1.92;;
11394;SDS011;5753;54.402;10.220;2022-10-16T05:02:13;7.07;;;2.50;;
11394;SDS011;5753;54.402;10.220;2022-10-16T05:04:39;2.50;;;2.30;;
11394;SDS011;5753;54.402;10.220;2022-10-16T05:07:05;3.58;;;2.33;;
11394;SDS011;5753;54.402;10.220;2022-10-16T05:09:31;5.40;;;2.45;;
11394;SDS011;5753;54.402;10.220;2022-10-16T05:11:57;2.75;;;2.55;;
11394;SDS011;5753;54.402;10.220;2022-10-16T05:14:23;7.10;;;2.65;;
11394;SDS011;5753;54.402;10.220;2022-10-16T05:16:50;8.93;;;1.90;;
11394;SDS011;5753;54.402;10.220;2022-10-16T05:19:16;3.70;;;1.85;;
11394;SDS011;5753;54.402;10.220;2022-10-16T05:21:43;2.38;;;1.73;;
11394;SDS011;5753;54.402;10.220;2022-10-16T05:24:09;3.30;;;2.38;;
11394;SDS011;5753;54.402;10.220;2022-10-16T05:26:35;3.17;;;2.25;;
11394;SDS011;5753;54.402;10.220;2022-10-16T05:29:01;5.20;;;1.88;;
11394;SDS011;5753;54.402;10.220;2022-10-16T05:31:28;4.97;;;2.05;;
11394;SDS011;5753;54.402;10.220;2022-10-16T05:34:00;2.05;;;1.95;;
11394;SDS011;5753;54.402;10.220;2022-10-16T05:36:27;5.07;;;2.40;;
11394;SDS011;5753;54.402;10.220;2022-10-16T05:38:53;5.70;;;2.47;;
11394;SDS011;5753;54.402;10.220;2022-10-16T05:41:19;3.20;;;2.30;;
11394;SDS011;5753;54.402;10.220;2022-10-16T05:43:49;3.55;;;1.45;;
11394;SDS011;5753;54.402;10.220;2022-10-16T05:46:15;5.43;;;2.05;;
11394;SDS011;5753;54.402;10.220;2022-10-16T05:48:42;10.30;;;2.53;;
11394;SDS011;5753;54.402;10.220;2022-10-16T05:51:09;1.95;;;1.27;;
11394;SDS011;5753;54.402;10.220;2022-10-16T05:53:38;3.35;;;2.33;;
11394;SDS011;5753;54.402;10.220;2022-10-16T05:56:06;5.90;;;2.38;;
11394;SDS011;5753;54.402;10.220;2022-10-16T05:58:34;3.58;;;2.20;;
11394;SDS011;5753;54.402;10.220;2022-10-16T06:01:03;5.47;;;2.28;;
11394;SDS011;5753;54.402;10.220;2022-10-16T06:03:32;2.35;;;1.83;;
11394;SDS011;5753;54.402;10.220;2022-10-16T06:05:59;14.27;;;2.88;;
11394;SDS011;5753;54.402;10.220;2022-10-16T06:08:32;3.33;;;1.48;;
11394;SDS011;5753;54.402;10.220;2022-10-16T06:11:02;2.22;;;2.03;;
11394;SDS011;5753;54.402;10.220;2022-10-16T06:13:29;2.55;;;2.30;;
11394;SDS011;5753;54.402;10.220;2022-10-16T06:15:57;2.47;;;1.80;;
11394;SDS011;5753;54.402;10.220;2022-10-16T06:18:24;5.25;;;1.80;;
11394;SDS011;5753;54.402;10.220;2022-10-16T06:20:51;9.20;;;1.70;;
11394;SDS011;5753;54.402;10.220;2022-10-16T06:23:17;7.57;;;1.50;;
11394;SDS011;5753;54.402;10.220;2022-10-16T06:25:44;11.30;;;2.53;;
11394;SDS011;5753;54.402;10.220;2022-10-16T06:28:10;5.00;;;2.35;;
11394;SDS011;5753;54.402;10.220;2022-10-16T06:30:36;4.00;;;2.63;;
11394;SDS011;5753;54.402;10.220;2022-10-16T06:33:02;2.45;;;1.70;;
11394;SDS011;5753;54.402;10.220;2022-10-16T06:35:28;4.65;;;1.77;;
11394;SDS011;5753;54.402;10.220;2022-10-16T06:37:56;2.28;;;1.60;;
11394;SDS011;5753;54.402;10.220;2022-10-16T06:40:23;4.38;;;1.48;;
11394;SDS011;5753;54.402;10.220;2022-10-16T06:42:49;8.27;;;3.33;;
11394;SDS011;5753;54.402;10.220;2022-10-16T06:45:16;3.42;;;1.60;;
11394;SDS011;5753;54.402;10.220;2022-10-16T06:47:42;6.90;;;1.35;;
11394;SDS011;5753;54.402;10.220;2022-10-16T06:50:09;4.32;;;1.55;;
11394;SDS011;5753;54.402;10.220;2022-10-16T06:52:35;4.68;;;2.33;;
11394;SDS011;5753;54.402;10.220;2022-10-16T06:55:01;2.45;;;1.60;;
11394;SDS011;5753;54.402;10.220;2022-10-16T06:57:28;1.15;;;1.05;;
11394;SDS011;5753;54.402;10.220;2022-10-16T06:59:54;1.90;;;1.48;;
11394;SDS011;5753;54.402;10.220;2022-10-16T07:02:20;1.67;;;1.13;;
11394;SDS011;5753;54.402;10.220;2022-10-16T07:04:46;1.60;;;1.50;;
11394;SDS011;5753;54.402;10.220;2022-10-16T07:07:13;2.00;;;1.52;;
11394;SDS011;5753;54.402;10.220;2022-10-16T07:09:39;5.25;;;2.42;;
11394;SDS011;5753;54.402;10.220;2022-10-16T07:12:06;4.95;;;2.08;;
11394;SDS011;5753;54.402;10.220;2022-10-16T07:14:32;8.20;;;2.50;;
11394;SDS011;5753;54.402;10.220;2022-10-16T07:16:58;1.98;;;1.48;;
11394;SDS011;5753;54.402;10.220;2022-10-16T07:19:24;3.85;;;2.42;;
11394;SDS011;5753;54.402;10.220;2022-10-16T07:21:50;2.22;;;1.80;;
11394;SDS011;5753;54.402;10.220;2022-10-16T07:24:16;2.88;;;2.13;;
11394;SDS011;5753;54.402;10.220;2022-10-16T07:26:44;4.43;;;1.17;;
11394;SDS011;5753;54.402;10.220;2022-10-16T07:29:12;2.65;;;1.27;;
11394;SDS011;5753;54.402;10.220;2022-10-16T07:31:39;1.55;;;1.10;;
11394;SDS011;5753;54.402;10.220;2022-10-16T07:34:06;2.20;;;2.00;;
11394;SDS011;5753;54.402;10.220;2022-10-16T07:36:32;3.97;;;1.88;;
11394;SDS011;5753;54.402;10.220;2022-10-16T07:38:58;3.85;;;2.05;;
11394;SDS011;5753;54.402;10.220;2022-10-16T07:41:25;4.68;;;2.08;;
11394;SDS011;5753;54.402;10.220;2022-10-16T07:43:52;4.15;;;1.80;;
11394;SDS011;5753;54.402;10.220;2022-10-16T07:46:19;9.07;;;1.40;;
11394;SDS011;5753;54.402;10.220;2022-10-16T07:48:47;6.40;;;1.52;;
11394;SDS011;5753;54.402;10.220;2022-10-16T07:51:14;2.40;;;1.70;;
11394;SDS011;5753;54.402;10.220;2022-10-16T07:53:45;8.32;;;1.48;;
11394;SDS011;5753;54.402;10.220;2022-10-16T07:56:12;3.42;;;2.67;;
11394;SDS011;5753;54.402;10.220;2022-10-16T07:58:39;3.30;;;2.17;;
11394;SDS011;5753;54.402;10.220;2022-10-16T08:01:06;4.15;;;1.63;;
11394;SDS011;5753;54.402;10.220;2022-10-16T08:03:34;3.08;;;1.77;;
11394;SDS011;5753;54.402;10.220;2022-10-16T08:06:00;9.73;;;3.60;;
11394;SDS011;5753;54.402;10.220;2022-10-16T08:08:27;1.95;;;1.85;;
11394;SDS011;5753;54.402;10.220;2022-10-16T08:10:54;6.22;;;2.00;;
11394;SDS011;5753;54.402;10.220;2022-10-16T08:13:20;6.78;;;2.05;;
11394;SDS011;5753;54.402;10.220;2022-10-16T08:15:47;3.70;;;2.22;;
11394;SDS011;5753;54.402;10.220;2022-10-16T08:18:14;4.40;;;1.67;;
11394;SDS011;5753;54.402;10.220;2022-10-16T08:20:41;4.70;;;1.70;;
11394;SDS011;5753;54.402;10.220;2022-10-16T08:23:09;4.57;;;1.35;;
11394;SDS011;5753;54.402;10.220;2022-10-16T08:25:38;2.40;;;1.45;;
11394;SDS011;5753;54.402;10.220;2022-10-16T08:28:06;8.00;;;1.92;;
11394;SDS011;5753;54.402;10.220;2022-10-16T08:30:33;2.83;;;1.77;;
11394;SDS011;5753;54.402;10.220;2022-10-16T08:32:59;3.13;;;1.73;;
11394;SDS011;5753;54.402;10.220;2022-10-16T08:35:26;7.70;;;3.85;;
11394;SDS011;5753;54.402;10.220;2022-10-16T08:37:52;5.90;;;2.95;;
11394;SDS011;5753;54.402;10.220;2022-10-16T08:40:20;8.43;;;3.90;;
11394;SDS011;5753;54.402;10.220;2022-10-16T08:45:25;8.45;;;3.55;;
11394;SDS011;5753;54.402;10.220;2022-10-16T08:50:29;3.20;;;1.92;;
11394;SDS011;5753;54.402;10.220;2022-10-16T08:52:58;6.40;;;3.20;;
11394;SDS011;5753;54.402;10.220;2022-10-16T08:55:28;5.15;;;3.80;;
11394;SDS011;5753;54.402;10.220;2022-10-16T08:58:13;5.38;;;4.40;;
11394;SDS011;5753;54.402;10.220;2022-10-16T09:00:42;7.28;;;4.05;;
11394;SDS011;5753;54.402;10.220;2022-10-16T09:13:52;25.20;;;4.38;;
11394;SDS011;5753;54.402;10.220;2022-10-16T09:16:33;4.90;;;4.20;;
11394;SDS011;5753;54.402;10.220;2022-10-16T09:21:45;4.80;;;2.33;;
11394;SDS011;5753;54.402;10.220;2022-10-16T09:24:20;8.50;;;3.90;;
11394;SDS011;5753;54.402;10.220;2022-10-16T09:26:49;11.05;;;3.45;;
11394;SDS011;5753;54.402;10.220;2022-10-16T09:29:15;8.77;;;3.85;;
11394;SDS011;5753;54.402;10.220;2022-10-16T09:31:46;7.90;;;3.67;;
11394;SDS011;5753;54.402;10.220;2022-10-16T09:36:51;6.13;;;2.90;;
11394;SDS011;5753;54.402;10.220;2022-10-16T09:39:17;4.60;;;3.10;;
11394;SDS011;5753;54.402;10.220;2022-10-16T09:41:44;5.55;;;2.25;;
11394;SDS011;5753;54.402;10.220;2022-10-16T09:47:05;5.22;;;2.55;;
11394;SDS011;5753;54.402;10.220;2022-10-16T09:49:49;9.35;;;2.78;;
11394;SDS011;5753;54.402;10.220;2022-10-16T09:52:36;9.05;;;3.53;;
11394;SDS011;5753;54.402;10.220;2022-10-16T09:55:12;5.88;;;2.25;;
11394;SDS011;5753;54.402;10.220;2022-10-16T09:57:50;8.75;;;3.05;;
11394;SDS011;5753;54.402;10.220;2022-10-16T10:00:17;12.70;;;3.78;;
11394;SDS011;5753;54.402;10.220;2022-10-16T10:02:45;2.67;;;2.08;;
11394;SDS011;5753;54.402;10.220;2022-10-16T10:05:27;3.78;;;2.33;;
11394;SDS011;5753;54.402;10.220;2022-10-16T10:07:55;3.90;;;1.97;;
11394;SDS011;5753;54.402;10.220;2022-10-16T10:10:28;4.00;;;1.75;;
11394;SDS011;5753;54.402;10.220;2022-10-16T10:12:56;12.23;;;2.53;;
11394;SDS011;5753;54.402;10.220;2022-10-16T10:15:23;5.80;;;2.53;;
11394;SDS011;5753;54.402;10.220;2022-10-16T10:17:55;5.03;;;2.42;;
11394;SDS011;5753;54.402;10.220;2022-10-16T10:22:55;4.93;;;3.42;;
11394;SDS011;5753;54.402;10.220;2022-10-16T10:33:50;4.32;;;3.42;;
11394;SDS011;5753;54.402;10.220;2022-10-16T10:36:41;3.05;;;2.45;;
11394;SDS011;5753;54.402;10.220;2022-10-16T10:49:53;5.93;;;2.20;;
11394;SDS011;5753;54.402;10.220;2022-10-16T10:55:23;7.45;;;2.60;;
11394;SDS011;5753;54.402;10.220;2022-10-16T11:00:57;2.40;;;1.83;;
11394;SDS011;5753;54.402;10.220;2022-10-16T11:06:28;5.22;;;3.35;;
11394;SDS011;5753;54.402;10.220;2022-10-16T11:11:50;15.05;;;3.70;;
11394;SDS011;5753;54.402;10.220;2022-10-16T11:14:28;8.90;;;1.77;;
11394;SDS011;5753;54.402;10.220;2022-10-16T11:17:32;7.07;;;3.08;;
11394;SDS011;5753;54.402;10.220;2022-10-16T11:20:18;3.28;;;1.77;;
11394;SDS011;5753;54.402;10.220;2022-10-16T11:25:57;4.13;;;2.42;;
11394;SDS011;5753;54.402;10.220;2022-10-16T11:31:08;6.43;;;2.38;;
11394;SDS011;5753;54.402;10.220;2022-10-16T11:34:12;16.00;;;3.70;;
11394;SDS011;5753;54.402;10.220;2022-10-16T11:39:29;6.45;;;2.28;;
11394;SDS011;5753;54.402;10.220;2022-10-16T11:41:59;3.83;;;1.85;;
11394;SDS011;5753;54.402;10.220;2022-10-16T11:44:40;5.43;;;1.83;;
11394;SDS011;5753;54.402;10.220;2022-10-16T11:47:27;6.33;;;2.17;;
11394;SDS011;5753;54.402;10.220;2022-10-16T11:50:06;7.72;;;3.47;;
11394;SDS011;5753;54.402;10.220;2022-10-16T11:53:31;3.47;;;2.20;;
11394;SDS011;5753;54.402;10.220;2022-10-16T11:55:49;6.78;;;1.67;;
11394;SDS011;5753;54.402;10.220;2022-10-16T11:58:20;6.55;;;2.78;;
11394;SDS011;5753;54.402;10.220;2022-10-16T12:03:35;6.20;;;1.88;;
11394;SDS011;5753;54.402;10.220;2022-10-16T12:06:29;11.82;;;3.25;;
11394;SDS011;5753;54.402;10.220;2022-10-16T12:11:49;5.28;;;1.50;;
11394;SDS011;5753;54.402;10.220;2022-10-16T12:16:55;3.85;;;1.25;;
11394;SDS011;5753;54.402;10.220;2022-10-16T12:19:25;5.57;;;2.08;;
11394;SDS011;5753;54.402;10.220;2022-10-16T12:21:55;6.35;;;1.90;;
11394;SDS011;5753;54.402;10.220;2022-10-16T12:27:01;3.35;;;1.55;;
11394;SDS011;5753;54.402;10.220;2022-10-16T12:35:00;5.82;;;2.00;;
11394;SDS011;5753;54.402;10.220;2022-10-16T12:37:32;5.70;;;1.98;;
11394;SDS011;5753;54.402;10.220;2022-10-16T12:40:11;10.82;;;1.95;;
11394;SDS011;5753;54.402;10.220;2022-10-16T12:42:40;5.85;;;1.92;;
11394;SDS011;5753;54.402;10.220;2022-10-16T12:47:52;8.90;;;2.67;;
11394;SDS011;5753;54.402;10.220;2022-10-16T12:50:23;9.48;;;1.88;;
11394;SDS011;5753;54.402;10.220;2022-10-16T12:52:52;4.78;;;1.90;;
11394;SDS011;5753;54.402;10.220;2022-10-16T12:55:19;10.77;;;3.75;;
11394;SDS011;5753;54.402;10.220;2022-10-16T13:00:45;5.78;;;2.22;;
11394;SDS011;5753;54.402;10.220;2022-10-16T13:09:17;4.40;;;1.42;;
11394;SDS011;5753;54.402;10.220;2022-10-16T13:17:20;13.10;;;3.28;;
11394;SDS011;5753;54.402;10.220;2022-10-16T13:25:45;7.47;;;1.02;;
11394;SDS011;5753;54.402;10.220;2022-10-16T13:28:32;3.65;;;2.85;;
11394;SDS011;5753;54.402;10.220;2022-10-16T13:31:01;2.90;;;1.73;;
11394;SDS011;5753;54.402;10.220;2022-10-16T13:33:40;5.95;;;2.28;;
11394;SDS011;5753;54.402;10.220;2022-10-16T13:36:18;4.68;;;1.92;;
11394;SDS011;5753;54.402;10.220;2022-10-16T13:38:46;7.95;;;2.78;;
11394;SDS011;5753;54.402;10.220;2022-10-16T13:41:16;4.60;;;1.20;;
11394;SDS011;5753;54.402;10.220;2022-10-16T13:43:44;3.78;;;1.27;;
11394;SDS011;5753;54.402;10.220;2022-10-16T13:46:17;3.92;;;1.30;;
11394;SDS011;5753;54.402;10.220;2022-10-16T13:48:55;3.90;;;1.65;;
11394;SDS011;5753;54.402;10.220;2022-10-16T13:51:23;2.47;;;2.17;;
11394;SDS011;5753;54.402;10.220;2022-10-16T13:53:49;5.38;;;1.45;;
11394;SDS011;5753;54.402;10.220;2022-10-16T13:56:17;2.45;;;1.27;;
11394;SDS011;5753;54.402;10.220;2022-10-16T13:58:45;3.30;;;1.52;;
11394;SDS011;5753;54.402;10.220;2022-10-16T14:01:16;5.63;;;1.50;;
11394;SDS011;5753;54.402;10.220;2022-10-16T14:03:44;6.45;;;2.22;;
11394;SDS011;5753;54.402;10.220;2022-10-16T14:06:16;4.53;;;1.20;;
11394;SDS011;5753;54.402;10.220;2022-10-16T14:08:50;4.95;;;1.77;;
11394;SDS011;5753;54.402;10.220;2022-10-16T14:11:30;7.35;;;1.40;;
11394;SDS011;5753;54.402;10.220;2022-10-16T14:13:57;3.88;;;2.50;;
11394;SDS011;5753;54.402;10.220;2022-10-16T14:16:25;2.55;;;1.05;;
11394;SDS011;5753;54.402;10.220;2022-10-16T14:19:01;4.47;;;1.20;;
11394;SDS011;5753;54.402;10.220;2022-10-16T14:21:31;2.60;;;2.17;;
11394;SDS011;5753;54.402;10.220;2022-10-16T14:23:59;6.90;;;3.33;;
11394;SDS011;5753;54.402;10.220;2022-10-16T14:26:40;4.63;;;1.20;;
11394;SDS011;5753;54.402;10.220;2022-10-16T14:31:39;2.47;;;1.60;;
11394;SDS011;5753;54.402;10.220;2022-10-16T14:34:22;2.60;;;1.33;;
11394;SDS011;5753;54.402;10.220;2022-10-16T14:36:49;13.23;;;4.28;;
11394;SDS011;5753;54.402;10.220;2022-10-16T14:39:17;3.15;;;1.40;;
11394;SDS011;5753;54.402;10.220;2022-10-16T14:41:47;2.63;;;1.75;;
11394;SDS011;5753;54.402;10.220;2022-10-16T14:44:17;4.85;;;1.60;;
11394;SDS011;5753;54.402;10.220;2022-10-16T14:46:46;4.15;;;2.05;;
11394;SDS011;5753;54.402;10.220;2022-10-16T14:51:42;7.22;;;1.60;;
11394;SDS011;5753;54.402;10.220;2022-10-16T14:54:10;13.73;;;2.28;;
11394;SDS011;5753;54.402;10.220;2022-10-16T14:59:39;7.63;;;1.98;;
11394;SDS011;5753;54.402;10.220;2022-10-16T15:02:21;11.43;;;3.40;;
11394;SDS011;5753;54.402;10.220;2022-10-16T15:04:56;5.70;;;1.67;;
11394;SDS011;5753;54.402;10.220;2022-10-16T15:07:23;7.57;;;1.95;;
11394;SDS011;5753;54.402;10.220;2022-10-16T15:09:49;6.22;;;1.75;;
11394;SDS011;5753;54.402;10.220;2022-10-16T15:12:16;7.07;;;2.00;;
11394;SDS011;5753;54.402;10.220;2022-10-16T15:14:42;10.60;;;2.38;;
11394;SDS011;5753;54.402;10.220;2022-10-16T15:17:09;6.63;;;1.77;;
11394;SDS011;5753;54.402;10.220;2022-10-16T15:19:36;9.57;;;2.63;;
11394;SDS011;5753;54.402;10.220;2022-10-16T15:22:02;8.73;;;2.42;;
11394;SDS011;5753;54.402;10.220;2022-10-16T15:24:28;10.52;;;3.65;;
11394;SDS011;5753;54.402;10.220;2022-10-16T15:26:55;6.97;;;2.40;;
11394;SDS011;5753;54.402;10.220;2022-10-16T15:29:21;10.88;;;3.17;;
11394;SDS011;5753;54.402;10.220;2022-10-16T15:31:47;3.15;;;2.20;;
11394;SDS011;5753;54.402;10.220;2022-10-16T15:34:13;8.77;;;2.83;;
11394;SDS011;5753;54.402;10.220;2022-10-16T15:36:40;8.32;;;3.38;;
11394;SDS011;5753;54.402;10.220;2022-10-16T15:39:15;17.15;;;3.28;;
11394;SDS011;5753;54.402;10.220;2022-10-16T15:41:44;7.00;;;2.10;;
11394;SDS011;5753;54.402;10.220;2022-10-16T15:44:16;6.93;;;3.08;;
11394;SDS011;5753;54.402;10.220;2022-10-16T15:46:42;7.50;;;3.13;;
11394;SDS011;5753;54.402;10.220;2022-10-16T15:49:09;4.28;;;1.85;;
11394;SDS011;5753;54.402;10.220;2022-10-16T15:51:39;1.52;;;1.10;;
11394;SDS011;5753;54.402;10.220;2022-10-16T15:54:06;5.05;;;2.13;;
11394;SDS011;5753;54.402;10.220;2022-10-16T15:56:32;10.25;;;3.38;;
11394;SDS011;5753;54.402;10.220;2022-10-16T15:58:59;8.95;;;3.05;;
11394;SDS011;5753;54.402;10.220;2022-10-16T16:01:26;6.72;;;2.72;;
11394;SDS011;5753;54.402;10.220;2022-10-16T16:03:54;9.07;;;4.13;;
11394;SDS011;5753;54.402;10.220;2022-10-16T16:06:20;4.95;;;1.15;;
11394;SDS011;5753;54.402;10.220;2022-10-16T16:08:48;8.88;;;2.38;;
11394;SDS011;5753;54.402;10.220;2022-10-16T16:11:15;8.48;;;3.35;;
11394;SDS011;5753;54.402;10.220;2022-10-16T16:13:42;8.98;;;2.03;;
11394;SDS011;5753;54.402;10.220;2022-10-16T16:16:09;6.82;;;3.67;;
11394;SDS011;5753;54.402;10.220;2022-10-16T16:18:37;6.20;;;2.03;;
11394;SDS011;5753;54.402;10.220;2022-10-16T16:21:04;19.02;;;5.38;;
11394;SDS011;5753;54.402;10.220;2022-10-16T16:23:30;11.05;;;4.82;;
11394;SDS011;5753;54.402;10.220;2022-10-16T16:28:39;4.60;;;2.42;;
11394;SDS011;5753;54.402;10.220;2022-10-16T16:31:07;8.35;;;3.17;;
11394;SDS011;5753;54.402;10.220;2022-10-16T16:33:34;11.90;;;3.15;;
11394;SDS011;5753;54.402;10.220;2022-10-16T16:36:00;6.57;;;3.35;;
11394;SDS011;5753;54.402;10.220;2022-10-16T16:38:28;18.25;;;5.55;;
11394;SDS011;5753;54.402;10.220;2022-10-16T16:40:55;12.73;;;4.88;;
11394;SDS011;5753;54.402;10.220;2022-10-16T16:43:24;12.45;;;4.63;;
11394;SDS011;5753;54.402;10.220;2022-10-16T16:45:52;8.45;;;3.80;;
11394;SDS011;5753;54.402;10.220;2022-10-16T16:48:19;8.38;;;3.88;;
11394;SDS011;5753;54.402;10.220;2022-10-16T16:50:46;14.45;;;2.58;;
11394;SDS011;5753;54.402;10.220;2022-10-16T16:53:12;26.50;;;5.05;;
11394;SDS011;5753;54.402;10.220;2022-10-16T16:55:38;4.28;;;2.28;;
11394;SDS011;5753;54.402;10.220;2022-10-16T16:58:04;6.78;;;3.17;;
11394;SDS011;5753;54.402;10.220;2022-10-16T17:00:30;8.93;;;2.95;;
11394;SDS011;5753;54.402;10.220;2022-10-16T17:02:57;9.05;;;3.38;;
11394;SDS011;5753;54.402;10.220;2022-10-16T17:05:23;8.88;;;3.88;;
11394;SDS011;5753;54.402;10.220;2022-10-16T17:07:49;15.80;;;3.95;;
11394;SDS011;5753;54.402;10.220;2022-10-16T17:10:15;8.00;;;2.70;;
11394;SDS011;5753;54.402;10.220;2022-10-16T17:12:41;8.68;;;2.25;;
11394;SDS011;5753;54.402;10.220;2022-10-16T17:15:07;15.82;;;5.22;;